Time;durP1;ratioP1;P1;durP2;ratioP2;P2;SDS_P1;SDS_P2;PMS_P1;PMS_P2;Temp;Humidity;BMP_temperature;BMP_pressure;BME280_temperature;BME280_humidity;BME280_pressure;Samples;Min_cycle;Max_cycle;Signal;HPM_P1;HPM_P2
2022/09/16 00:01:20;;;;;;;8.93;5.20;;;;;;;12.56;100.00;94942.84;5043832;28;20056;-75
2022/09/16 00:03:47;;;;;;;11.38;6.20;;;;;;;12.55;100.00;94951.84;5053396;28;20044;-75
2022/09/16 00:06:20;;;;;;;8.50;5.35;;;;;;;12.57;100.00;94949.69;5047204;28;20044;-76
2022/09/16 00:08:47;;;;;;;11.48;5.78;;;;;;;12.57;100.00;94943.63;5042274;28;20047;-76
2022/09/16 00:11:13;;;;;;;10.90;5.32;;;;;;;12.54;100.00;94934.44;5046523;28;20525;-76
2022/09/16 00:13:39;;;;;;;8.10;5.20;;;;;;;12.54;100.00;94939.72;5039118;28;20068;-76
2022/09/16 00:16:11;;;;;;;10.23;5.35;;;;;;;12.53;100.00;94932.88;5059135;28;20054;-75
2022/09/16 00:18:37;;;;;;;12.18;5.60;;;;;;;12.53;100.00;94938.16;5043710;28;20044;-75
2022/09/16 00:21:06;;;;;;;6.95;4.53;;;;;;;12.51;100.00;94929.75;5049373;28;20479;-75
2022/09/16 00:23:32;;;;;;;10.27;5.32;;;;;;;12.53;100.00;94930.25;5041042;28;20041;-75
2022/09/16 00:25:57;;;;;;;9.57;5.40;;;;;;;12.45;100.00;94920.38;5049487;28;20120;-75
2022/09/16 00:28:23;;;;;;;11.35;5.57;;;;;;;12.45;100.00;94920.38;5032914;28;20045;-75
2022/09/16 00:30:49;;;;;;;9.85;5.38;;;;;;;12.39;100.00;94905.72;5041279;28;20065;-76
2022/09/16 00:33:15;;;;;;;11.23;5.72;;;;;;;12.42;100.00;94910.41;5042046;28;20045;-75
2022/09/16 00:35:40;;;;;;;14.57;5.97;;;;;;;12.38;100.00;94898.88;5038001;28;20400;-76
2022/09/16 00:38:06;;;;;;;10.23;5.78;;;;;;;12.42;100.00;94910.41;5040718;28;20055;-75
2022/09/16 00:40:32;;;;;;;9.15;5.47;;;;;;;12.40;100.00;94907.31;5038558;28;20040;-76
2022/09/16 00:42:59;;;;;;;12.82;5.53;;;;;;;12.45;100.00;94904.53;5042265;28;20044;-75
2022/09/16 00:45:30;;;;;;;7.22;4.93;;;;;;;12.44;100.00;94908.25;5042126;28;20040;-75
2022/09/16 00:48:06;;;;;;;11.20;5.07;;;;;;;12.37;100.00;94902.59;5038562;28;20041;-76
2022/09/16 00:50:41;;;;;;;9.13;5.38;;;;;;;12.44;100.00;94908.25;5047985;28;20525;-76
2022/09/16 00:53:14;;;;;;;9.07;5.15;;;;;;;12.39;100.00;94911.00;5039336;28;20396;-76
2022/09/16 00:55:41;;;;;;;12.40;5.70;;;;;;;12.38;100.00;94920.75;5048605;28;20493;-76
2022/09/16 00:58:17;;;;;;;9.68;5.38;;;;;;;12.40;100.00;94912.56;5049556;28;20546;-76
2022/09/16 01:00:43;;;;;;;7.90;4.65;;;;;;;12.30;100.00;94914.34;5043324;28;20041;-75
2022/09/16 01:03:08;;;;;;;9.80;4.18;;;;;;;12.34;100.00;94913.75;5033230;28;20102;-76
2022/09/16 01:05:36;;;;;;;13.48;4.78;;;;;;;12.33;100.00;94922.75;5047208;28;20558;-74
2022/09/16 01:08:02;;;;;;;11.18;5.13;;;;;;;12.30;100.00;94924.13;5041695;28;20055;-75
2022/09/16 01:10:27;;;;;;;9.32;5.38;;;;;;;12.26;100.00;94923.13;5047960;28;20049;-75
2022/09/16 01:13:01;;;;;;;10.52;5.28;;;;;;;12.22;100.00;94917.66;5045163;28;20037;-75
2022/09/16 01:15:38;;;;;;;7.53;4.72;;;;;;;12.14;100.00;94910.44;5041588;28;20045;-74
2022/09/16 01:18:19;;;;;;;8.40;4.60;;;;;;;12.14;100.00;94915.72;5047455;28;20041;-75
2022/09/16 01:21:02;;;;;;;8.70;4.68;;;;;;;12.09;100.00;94913.16;5046983;28;20563;-74
2022/09/16 01:23:52;;;;;;;8.70;5.18;;;;;;;12.06;100.00;94911.13;5041274;28;20052;-74
2022/09/16 01:26:27;;;;;;;8.00;4.60;;;;;;;12.05;100.00;94906.91;5040837;28;20499;-75
2022/09/16 01:28:55;;;;;;;;;;;;;;;12.02;100.00;94910.13;5041169;28;20077;-74
2022/09/16 01:31:37;;;;;;;9.23;4.82;;;;;;;12.04;100.00;94905.34;5039321;28;19921;-77
2022/09/16 01:34:21;;;;;;;9.93;4.93;;;;;;;12.00;100.00;94904.38;5044991;28;20068;-75
2022/09/16 01:37:06;;;;;;;8.65;5.05;;;;;;;11.93;100.00;94904.72;5041562;28;20033;-76
2022/09/16 01:39:53;;;;;;;12.38;5.53;;;;;;;11.88;100.00;94897.72;5041774;28;20044;-75
2022/09/16 01:42:56;;;;;;;9.77;5.18;;;;;;;11.87;100.00;94896.13;5031307;28;20499;-74
2022/09/16 01:45:47;;;;;;;12.30;6.25;;;;;;;11.86;100.00;94894.56;5043293;28;20041;-76
2022/09/16 01:48:42;;;;;;;10.45;4.90;;;;;;;11.83;100.00;94895.16;5042059;28;20664;-76
2022/09/16 01:51:18;;;;;;;8.43;5.32;;;;;;;11.84;100.00;94902.00;5039114;28;20095;-76
2022/09/16 01:53:47;;;;;;;8.68;5.35;;;;;;;11.78;100.00;94903.16;5039816;28;20037;-77
2022/09/16 01:56:30;;;;;;;9.80;5.70;;;;;;;11.81;100.00;94897.31;5039834;28;20066;-75
2022/09/16 01:59:08;;;;;;;9.18;5.63;;;;;;;11.81;100.00;94907.84;5030363;28;20041;-75
2022/09/16 02:01:41;;;;;;;10.73;5.75;;;;;;;11.85;100.00;94908.84;5041356;28;20498;-75
2022/09/16 02:04:18;;;;;;;11.73;6.43;;;;;;;11.83;100.00;94905.69;5037295;28;20056;-75
2022/09/16 02:06:45;;;;;;;11.80;5.85;;;;;;;11.82;100.00;94914.66;5042336;28;20048;-75
2022/09/16 02:09:18;;;;;;;15.38;5.93;;;;;;;12.04;100.00;94910.63;5046627;28;20058;-75
2022/09/16 02:11:48;;;;;;;11.38;5.40;;;;;;;12.13;100.00;94908.88;5034728;28;20048;-75
2022/09/16 02:14:19;;;;;;;9.70;5.60;;;;;;;12.15;100.00;94916.50;5043847;28;20040;-75
2022/09/16 02:17:00;;;;;;;9.90;5.63;;;;;;;12.09;100.00;94910.53;5041521;28;20398;-75
2022/09/16 02:19:38;;;;;;;9.75;5.60;;;;;;;12.12;100.00;94915.22;5042786;28;20041;-76
2022/09/16 02:22:10;;;;;;;10.32;5.93;;;;;;;12.19;100.00;94922.75;5040239;28;20098;-75
2022/09/16 02:24:38;;;;;;;11.68;5.55;;;;;;;12.20;100.00;94922.44;5041868;28;20060;-76
2022/09/16 02:27:07;;;;;;;8.95;5.57;;;;;;;12.19;100.00;94920.09;5046197;28;20126;-76
2022/09/16 02:29:42;;;;;;;10.95;5.28;;;;;;;12.14;100.00;94921.00;5038777;28;20055;-75
2022/09/16 02:32:08;;;;;;;;;;;;;;;12.18;100.00;94921.94;5050434;28;20041;-76
2022/09/16 02:34:41;;;;;;;10.95;5.47;;;;;;;12.15;100.00;94927.81;5044747;28;20393;-76
2022/09/16 02:37:23;;;;;;;13.40;5.65;;;;;;;12.11;100.00;94921.56;5039164;28;20043;-76
2022/09/16 02:39:54;;;;;;;8.23;4.95;;;;;;;12.07;100.00;94913.47;5040584;28;20408;-76
2022/09/16 02:42:20;;;;;;;10.70;5.43;;;;;;;12.04;100.00;94910.63;5039049;28;20444;-76
2022/09/16 02:44:46;;;;;;;9.80;5.13;;;;;;;12.10;100.00;94914.75;5029920;28;20120;-75
2022/09/16 02:47:15;;;;;;;10.73;5.63;;;;;;;12.10;100.00;94914.75;5034630;28;20045;-76
2022/09/16 02:49:50;;;;;;;10.70;5.72;;;;;;;12.10;100.00;94914.75;5036704;28;20712;-75
2022/09/16 02:52:27;;;;;;;9.82;5.72;;;;;;;12.03;100.00;94909.84;5039761;28;20098;-75
2022/09/16 02:55:03;;;;;;;11.95;5.38;;;;;;;12.09;100.00;94907.88;5047705;28;20037;-76
2022/09/16 02:57:29;;;;;;;10.55;5.35;;;;;;;12.11;100.00;94911.00;5039435;28;20091;-74
2022/09/16 02:59:55;;;;;;;9.73;5.15;;;;;;;12.09;100.00;94902.63;5032062;28;20153;-75
2022/09/16 03:02:20;;;;;;;9.07;5.30;;;;;;;12.13;100.00;94903.59;5037932;28;20494;-75
2022/09/16 03:04:46;;;;;;;8.65;5.20;;;;;;;12.14;100.00;94894.63;5041459;28;20091;-76
2022/09/16 03:07:14;;;;;;;8.68;5.18;;;;;;;12.17;100.00;94899.31;5042344;28;20041;-75
2022/09/16 03:09:43;;;;;;;11.70;5.93;;;;;;;12.17;100.00;94894.03;5040730;28;20230;-75
2022/09/16 03:12:45;;;;;;;10.68;5.13;;;;;;;12.12;100.00;94891.47;5044074;28;20487;-75
2022/09/16 03:15:43;;;;;;;8.00;5.07;;;;;;;12.12;100.00;94897.56;5032522;28;20053;-74
2022/09/16 03:18:27;;;;;;;11.82;5.30;;;;;;;12.19;100.00;94897.13;5043628;28;20051;-75
2022/09/16 03:21:19;;;;;;;10.68;6.00;;;;;;;12.11;100.00;94889.91;5046778;28;20061;-75
2022/09/16 03:24:02;;;;;;;10.20;5.78;;;;;;;12.21;100.00;94894.19;5037766;28;20114;-76
2022/09/16 03:26:51;;;;;;;10.20;5.75;;;;;;;12.17;100.00;94888.75;5043008;28;20052;-75
2022/09/16 03:29:36;;;;;;;11.73;5.45;;;;;;;12.20;100.00;94893.44;5047666;28;20045;-76
2022/09/16 03:32:10;;;;;;;10.93;5.53;;;;;;;12.21;100.00;94879.19;5041610;28;20065;-74
2022/09/16 03:34:56;;;;;;;11.23;5.45;;;;;;;12.21;100.00;94881.81;5050641;28;20041;-76
2022/09/16 03:37:23;;;;;;;11.05;6.05;;;;;;;12.25;100.00;94880.13;5031881;28;20053;-74
2022/09/16 03:39:52;;;;;;;15.07;5.90;;;;;;;12.18;100.00;94874.47;5047461;28;20478;-75
2022/09/16 03:42:18;;;;;;;10.60;5.57;;;;;;;12.19;100.00;94881.31;5044841;28;20838;-76
2022/09/16 03:44:44;;;;;;;11.18;5.60;;;;;;;12.14;100.00;94878.78;5046046;28;20037;-75
2022/09/16 03:47:10;;;;;;;11.00;5.65;;;;;;;12.11;100.00;94874.88;5062110;28;20040;-75
2022/09/16 03:49:36;;;;;;;10.15;5.32;;;;;;;12.18;100.00;94879.75;5041603;28;20060;-75
2022/09/16 03:52:04;;;;;;;9.88;5.93;;;;;;;12.07;100.00;94873.13;5043047;28;20071;-76
2022/09/16 03:54:30;;;;;;;12.35;6.35;;;;;;;12.02;100.00;94878.50;5040839;28;20041;-75
2022/09/16 03:56:56;;;;;;;10.00;6.05;;;;;;;11.95;100.00;94866.50;5041158;28;20049;-75
2022/09/16 03:59:21;;;;;;;11.80;5.95;;;;;;;12.01;100.00;94869.00;5034268;28;20495;-76
2022/09/16 04:01:47;;;;;;;11.02;6.40;;;;;;;12.01;100.00;94863.75;5041139;28;20037;-75
2022/09/16 04:04:12;;;;;;;10.00;6.03;;;;;;;12.00;100.00;94872.75;5038686;28;20041;-75
2022/09/16 04:06:38;;;;;;;14.00;5.57;;;;;;;11.93;100.00;94873.09;5044165;28;20046;-76
2022/09/16 04:09:05;;;;;;;11.48;6.20;;;;;;;11.89;100.00;94872.88;5041992;28;20045;-75
2022/09/16 04:11:31;;;;;;;11.77;6.05;;;;;;;11.89;100.00;94875.53;5037574;28;20045;-75
2022/09/16 04:13:57;;;;;;;12.35;6.18;;;;;;;11.88;100.00;94879.25;5048603;28;20045;-76
2022/09/16 04:16:25;;;;;;;10.95;6.07;;;;;;;11.90;100.00;94873.69;5043352;28;20050;-75
2022/09/16 04:18:50;;;;;;;12.43;6.72;;;;;;;11.90;100.00;94869.19;5035456;28;20033;-75
2022/09/16 04:21:16;;;;;;;10.48;6.05;;;;;;;11.87;100.00;94875.03;5043364;28;20135;-75
2022/09/16 04:23:42;;;;;;;9.70;6.05;;;;;;;11.91;100.00;94876.03;5040689;28;20094;-76
2022/09/16 04:26:09;;;;;;;10.48;6.53;;;;;;;11.88;100.00;94881.09;5038106;28;20049;-76
2022/09/16 04:28:35;;;;;;;10.73;6.20;;;;;;;11.87;100.00;94880.31;5042143;28;20049;-75
2022/09/16 04:31:02;;;;;;;9.43;6.43;;;;;;;11.93;100.00;94879.16;5036183;28;20045;-75
2022/09/16 04:33:29;;;;;;;10.32;6.47;;;;;;;11.92;100.00;94888.13;5044056;28;20045;-75
2022/09/16 04:36:09;;;;;;;13.60;6.63;;;;;;;11.94;100.00;94888.66;5036808;28;20030;-75
2022/09/16 04:38:35;;;;;;;16.30;7.43;;;;;;;11.99;100.00;94889.63;5049868;28;20497;-76
2022/09/16 04:41:06;;;;;;;10.40;6.22;;;;;;;11.99;100.00;94892.25;5048461;28;20151;-76
2022/09/16 04:43:32;;;;;;;12.93;6.85;;;;;;;12.02;100.00;94891.69;5043954;28;20043;-75
2022/09/16 04:45:58;;;;;;;12.32;6.85;;;;;;;11.98;100.00;94890.69;5071476;28;20191;-75
2022/09/16 04:48:24;;;;;;;11.23;6.97;;;;;;;11.98;100.00;94890.69;5070427;28;20053;-75
2022/09/16 04:50:53;;;;;;;12.65;6.43;;;;;;;11.95;100.00;94892.84;5076379;28;20029;-74
2022/09/16 04:53:20;;;;;;;10.52;6.65;;;;;;;11.97;100.00;94892.56;5073569;28;20033;-74
2022/09/16 04:55:47;;;;;;;15.13;6.82;;;;;;;12.02;100.00;94907.50;5071496;28;20035;-74
2022/09/16 04:58:12;;;;;;;14.52;6.97;;;;;;;12.02;100.00;94902.22;5075618;28;20036;-74
2022/09/16 05:00:38;;;;;;;11.30;6.80;;;;;;;11.96;100.00;94899.66;5068829;28;20033;-74
2022/09/16 05:03:04;;;;;;;15.38;7.38;;;;;;;12.04;100.00;94900.06;5064089;28;20037;-74
2022/09/16 05:05:29;;;;;;;12.23;6.95;;;;;;;12.08;100.00;94901.03;5074496;28;20037;-75
2022/09/16 05:07:55;;;;;;;11.05;6.97;;;;;;;12.11;100.00;94900.44;5068750;28;20025;-74
2022/09/16 05:10:20;;;;;;;13.63;7.18;;;;;;;12.15;100.00;94896.16;5069304;28;20038;-74
2022/09/16 05:12:52;;;;;;;13.55;6.95;;;;;;;12.17;100.00;94907.22;5073487;28;20034;-74
2022/09/16 05:15:18;;;;;;;13.35;7.38;;;;;;;12.12;100.00;94896.75;5057368;28;20049;-76
2022/09/16 05:17:44;;;;;;;18.90;7.38;;;;;;;12.17;100.00;94904.56;5050890;28;20033;-76
2022/09/16 05:20:10;;;;;;;12.57;7.25;;;;;;;12.18;100.00;94902.72;5047188;28;20529;-76
2022/09/16 05:22:37;;;;;;;14.60;7.40;;;;;;;12.14;100.00;94889.34;5037267;28;20037;-76
2022/09/16 05:25:02;;;;;;;14.35;7.30;;;;;;;12.13;100.00;94898.31;5049847;28;20064;-75
2022/09/16 05:27:32;;;;;;;17.17;8.02;;;;;;;12.11;100.00;94908.38;5039743;28;20083;-76
2022/09/16 05:29:58;;;;;;;16.75;7.97;;;;;;;12.14;100.00;94902.53;5047297;28;20404;-75
2022/09/16 05:32:23;;;;;;;13.77;7.93;;;;;;;12.16;100.00;94913.56;5040023;28;20083;-76
2022/09/16 05:34:49;;;;;;;16.25;7.88;;;;;;;12.14;100.00;94905.16;5037277;28;20041;-76
2022/09/16 05:37:16;;;;;;;16.13;7.88;;;;;;;12.24;100.00;94909.44;5046377;28;20094;-75
2022/09/16 05:39:42;;;;;;;13.35;7.85;;;;;;;12.01;100.00;94895.38;5044332;28;20037;-75
2022/09/16 05:42:08;;;;;;;18.08;8.15;;;;;;;12.17;100.00;94898.50;5047733;28;20033;-76
2022/09/16 05:44:34;;;;;;;18.20;8.10;;;;;;;12.12;100.00;94896.75;5046529;28;20048;-76
2022/09/16 05:46:59;;;;;;;14.02;7.82;;;;;;;12.13;100.00;94893.03;5045003;28;20052;-76
2022/09/16 05:49:25;;;;;;;15.40;8.23;;;;;;;12.14;100.00;94894.63;5054689;28;20041;-75
2022/09/16 05:51:51;;;;;;;15.20;8.18;;;;;;;12.11;100.00;94889.91;5037146;28;20112;-76
2022/09/16 05:54:17;;;;;;;15.05;7.60;;;;;;;12.12;100.00;94892.28;5048439;28;20130;-75
2022/09/16 05:56:43;;;;;;;15.23;8.25;;;;;;;12.14;100.00;94894.63;5040316;28;20050;-75
2022/09/16 05:59:11;;;;;;;20.75;7.95;;;;;;;12.12;100.00;94886.19;5044065;28;20057;-75
2022/09/16 06:01:36;;;;;;;16.60;8.00;;;;;;;12.13;100.00;94898.31;5044986;28;20033;-76
2022/09/16 06:04:04;;;;;;;13.73;7.22;;;;;;;12.21;100.00;94895.00;5044707;28;20128;-76
2022/09/16 06:06:32;;;;;;;17.58;7.45;;;;;;;12.18;100.00;94895.56;5040290;28;20041;-75
2022/09/16 06:08:59;;;;;;;14.65;7.35;;;;;;;12.23;100.00;94892.84;5043998;28;20727;-74
2022/09/16 06:11:27;;;;;;;12.00;7.00;;;;;;;12.29;100.00;94888.25;5038307;28;20045;-74
2022/09/16 06:13:54;;;;;;;12.80;6.95;;;;;;;12.21;100.00;94891.56;5046524;28;20867;-77
2022/09/16 06:16:21;;;;;;;12.32;6.70;;;;;;;12.22;100.00;94896.53;5049557;28;20068;-75
2022/09/16 06:18:46;;;;;;;10.48;6.75;;;;;;;12.18;100.00;94890.28;5043452;28;20041;-75
2022/09/16 06:21:12;;;;;;;12.20;6.63;;;;;;;12.23;100.00;94887.56;5046044;28;20040;-75
2022/09/16 06:23:39;;;;;;;14.38;6.97;;;;;;;12.21;100.00;94879.19;5040731;28;20532;-76
2022/09/16 06:26:11;;;;;;;11.60;6.18;;;;;;;12.24;100.00;94889.13;5038067;28;20139;-75
2022/09/16 06:28:37;;;;;;;10.50;6.70;;;;;;;12.28;100.00;94884.84;5043819;28;20076;-74
2022/09/16 06:31:09;;;;;;;12.32;6.57;;;;;;;12.30;100.00;94882.66;5045332;28;20450;-74
2022/09/16 06:33:35;;;;;;;11.00;6.40;;;;;;;12.32;100.00;94889.53;5043640;28;20033;-74
2022/09/16 06:36:05;;;;;;;13.27;6.70;;;;;;;12.36;100.00;94879.94;5036131;28;20040;-76
2022/09/16 06:38:31;;;;;;;13.50;7.13;;;;;;;12.28;100.00;94884.03;5040788;28;20140;-75
2022/09/16 06:40:59;;;;;;;11.15;6.32;;;;;;;12.39;100.00;94889.91;5042313;28;20411;-77
2022/09/16 06:43:24;;;;;;;12.05;6.72;;;;;;;12.44;100.00;94887.13;5046392;28;20041;-76
2022/09/16 06:45:50;;;;;;;14.55;6.90;;;;;;;12.54;100.00;94892.22;5042316;28;20047;-75
2022/09/16 06:48:15;;;;;;;12.48;6.55;;;;;;;12.56;100.00;94890.06;5045754;28;20069;-76
2022/09/16 06:50:41;;;;;;;15.57;6.60;;;;;;;12.53;100.00;94888.00;5041896;28;20055;-75
2022/09/16 06:53:06;;;;;;;11.38;5.85;;;;;;;12.44;100.00;94881.84;5054518;28;20041;-75
2022/09/16 06:55:31;;;;;;;12.57;7.03;;;;;;;12.48;100.00;94893.38;5038191;28;20041;-77
2022/09/16 06:57:57;;;;;;;14.40;7.07;;;;;;;12.57;100.00;94891.63;5037988;28;20049;-76
2022/09/16 07:00:22;;;;;;;13.80;7.70;;;;;;;12.55;100.00;94877.94;5052889;28;20684;-77
2022/09/16 07:02:48;;;;;;;12.45;7.00;;;;;;;12.62;100.00;94888.88;5040204;28;20041;-77
2022/09/16 07:05:14;;;;;;;17.55;8.10;;;;;;;12.68;100.00;94876.34;5034487;28;20041;-76
2022/09/16 07:07:39;;;;;;;14.20;7.40;;;;;;;12.82;100.00;94881.59;5042321;28;20116;-76
2022/09/16 07:10:06;;;;;;;12.90;7.35;;;;;;;12.83;100.00;94891.06;5036380;28;20037;-76
2022/09/16 07:12:31;;;;;;;13.05;7.38;;;;;;;12.81;100.00;94880.00;5036260;28;20064;-77
2022/09/16 07:14:57;;;;;;;14.75;7.38;;;;;;;12.78;100.00;94891.19;5038895;28;20042;-77
2022/09/16 07:17:26;;;;;;;12.60;6.72;;;;;;;12.60;100.00;94877.84;5038578;28;20526;-74
2022/09/16 07:19:52;;;;;;;11.98;7.32;;;;;;;12.67;100.00;94884.56;5041710;28;20044;-74
2022/09/16 07:22:18;;;;;;;14.95;8.55;;;;;;;12.73;100.00;94878.06;5034957;28;20041;-75
2022/09/16 07:24:44;;;;;;;14.25;7.68;;;;;;;12.69;100.00;94883.19;5041991;28;20048;-76
2022/09/16 07:27:10;;;;;;;14.88;7.93;;;;;;;12.82;100.00;94892.16;5045114;28;20594;-76
2022/09/16 07:29:36;;;;;;;19.23;8.05;;;;;;;12.84;100.00;94889.97;5046353;28;20115;-76
2022/09/16 07:32:01;;;;;;;14.40;8.35;;;;;;;12.89;100.00;94891.75;5038501;28;20042;-76
2022/09/16 07:34:27;;;;;;;19.17;9.38;;;;;;;12.93;100.00;94888.19;5045134;28;20029;-75
2022/09/16 07:36:52;;;;;;;16.90;8.43;;;;;;;12.97;100.00;94894.44;5039538;28;20126;-78
2022/09/16 07:39:18;;;;;;;15.70;8.90;;;;;;;12.90;100.00;94894.09;5034509;28;20072;-78
2022/09/16 07:41:47;;;;;;;14.73;8.77;;;;;;;13.00;100.00;94888.56;5033375;28;20120;-78
2022/09/16 07:44:14;;;;;;;16.60;8.75;;;;;;;13.04;100.00;94893.25;5042741;28;20048;-78
2022/09/16 07:46:40;;;;;;;18.10;9.13;;;;;;;13.10;100.00;94886.75;5047157;28;20041;-78
2022/09/16 07:49:08;;;;;;;16.02;8.73;;;;;;;13.00;100.00;94890.41;5039486;28;20076;-79
2022/09/16 07:51:34;;;;;;;19.10;8.93;;;;;;;13.12;100.00;94887.25;5048805;28;20052;-76
2022/09/16 07:54:06;;;;;;;16.20;9.48;;;;;;;13.16;100.00;94882.94;5058262;28;20573;-76
2022/09/16 07:56:35;;;;;;;14.98;8.18;;;;;;;13.03;100.00;94881.09;5048542;28;20040;-77
2022/09/16 07:59:03;;;;;;;14.95;8.32;;;;;;;13.08;100.00;94883.66;5050577;28;20037;-74
2022/09/16 08:01:32;;;;;;;18.13;8.82;;;;;;;13.04;100.00;94877.41;5045600;28;20040;-77
2022/09/16 08:03:59;;;;;;;18.42;8.65;;;;;;;13.02;100.00;94882.22;5045312;28;20736;-82
2022/09/16 08:06:27;;;;;;;15.18;8.38;;;;;;;12.98;100.00;94874.88;5052273;28;20106;-80
2022/09/16 08:08:58;;;;;;;18.02;9.05;;;;;;;12.99;100.00;94880.94;5044344;28;20073;-80
2022/09/16 08:11:27;;;;;;;21.65;9.25;;;;;;;12.99;100.00;94871.16;5048091;28;20032;-79
2022/09/16 08:13:53;;;;;;;21.10;9.30;;;;;;;12.82;100.00;94881.59;5043155;28;20075;-75
2022/09/16 08:16:21;;;;;;;20.73;9.35;;;;;;;13.08;100.00;94878.38;5043607;28;20459;-78
2022/09/16 08:18:49;;;;;;;17.83;9.05;;;;;;;13.10;100.00;94870.91;5049914;28;20384;-78
2022/09/16 08:21:21;;;;;;;16.00;8.32;;;;;;;13.16;100.00;94875.00;5044571;28;20048;-77
2022/09/16 08:23:46;;;;;;;15.82;8.55;;;;;;;13.26;100.00;94874.75;5042457;28;20080;-77
2022/09/16 08:26:13;;;;;;;17.75;8.98;;;;;;;13.11;100.00;94878.53;5047470;28;20406;-76
2022/09/16 08:28:41;;;;;;;18.42;9.63;;;;;;;13.23;100.00;94878.00;5049849;28;20537;-75
2022/09/16 08:31:07;;;;;;;17.10;8.90;;;;;;;13.19;100.00;94887.63;5046196;28;20043;-75
2022/09/16 08:33:33;;;;;;;16.73;8.95;;;;;;;13.27;100.00;94897.44;5051169;28;20044;-75
2022/09/16 08:36:01;;;;;;;17.52;9.18;;;;;;;13.27;100.00;94892.16;5048860;28;20045;-75
2022/09/16 08:38:28;;;;;;;18.58;9.27;;;;;;;13.40;100.00;94895.06;5049744;28;20044;-76
2022/09/16 08:41:19;;;;;;;15.93;9.25;;;;;;;13.46;100.00;94896.50;5036409;28;20041;-75
2022/09/16 08:43:58;;;;;;;18.10;8.48;;;;;;;13.45;100.00;94892.31;5014572;28;20503;-77
2022/09/16 08:46:42;;;;;;;15.35;8.73;;;;;;;13.46;100.00;94888.56;5042215;28;20063;-78
2022/09/16 08:49:27;;;;;;;16.17;8.27;;;;;;;13.52;100.00;94887.38;5042211;28;20049;-76
2022/09/16 08:51:53;;;;;;;;;;;;;;;13.56;100.00;94885.69;5037591;28;20039;-78
2022/09/16 08:54:48;;;;;;;15.30;8.10;;;;;;;13.59;100.00;94882.44;5047151;28;19929;-75
2022/09/16 08:57:19;;;;;;;13.02;7.72;;;;;;;13.44;100.00;94886.22;5049161;28;20599;-76
2022/09/16 08:59:59;;;;;;;17.77;7.88;;;;;;;13.43;100.00;94870.66;5044277;28;20044;-77
2022/09/16 09:02:46;;;;;;;19.23;8.52;;;;;;;13.47;100.00;94874.28;5042789;28;20163;-75
2022/09/16 09:05:30;;;;;;;17.92;8.25;;;;;;;13.41;100.00;94880.78;5036833;28;20526;-76
2022/09/16 09:08:12;;;;;;;16.13;7.38;;;;;;;13.40;100.00;94884.50;5048161;28;20049;-76
2022/09/16 09:10:46;;;;;;;15.77;7.60;;;;;;;13.37;100.00;94879.81;5042904;28;20425;-76
2022/09/16 09:13:48;;;;;;;19.40;8.90;;;;;;;13.40;100.00;94879.22;5043754;28;20040;-76
2022/09/16 09:16:32;;;;;;;16.90;9.05;;;;;;;13.49;100.00;94882.69;5044418;28;20113;-75
2022/09/16 09:19:15;;;;;;;15.00;8.10;;;;;;;13.45;100.00;94881.75;5042480;28;20048;-80
2022/09/16 09:21:51;;;;;;;;;;;;;;;13.44;100.00;94880.16;5049516;28;20143;-78
2022/09/16 09:24:29;;;;;;;14.15;8.40;;;;;;;13.38;100.00;94876.09;5063897;28;20533;-76
2022/09/16 09:27:09;;;;;;;18.77;8.40;;;;;;;13.30;100.00;94870.44;5050734;28;20128;-76
2022/09/16 09:29:51;;;;;;;17.80;9.00;;;;;;;13.33;100.00;94863.75;5048337;28;20099;-82
2022/09/16 09:32:50;;;;;;;19.45;9.07;;;;;;;13.34;100.00;94871.41;5043546;28;20140;-81
2022/09/16 09:35:28;;;;;;;18.17;9.27;;;;;;;13.30;100.00;94859.06;5049854;28;20625;-81
2022/09/16 09:38:12;;;;;;;18.05;8.65;;;;;;;13.34;100.00;94866.13;5050757;28;20045;-81
2022/09/16 09:40:46;;;;;;;23.85;9.70;;;;;;;13.32;100.00;94857.69;5042115;28;20045;-77
2022/09/16 09:43:24;;;;;;;17.73;10.15;;;;;;;13.40;100.00;94855.41;5040790;28;20037;-77
2022/09/16 09:46:12;;;;;;;21.17;11.60;;;;;;;13.39;100.00;94853.84;5044844;28;20037;-76
2022/09/16 09:48:46;;;;;;;21.52;9.68;;;;;;;13.43;100.00;94852.97;5042813;28;20067;-75
2022/09/16 09:51:20;;;;;;;19.42;10.23;;;;;;;13.40;100.00;94850.13;5042015;28;20047;-77
2022/09/16 09:53:53;;;;;;;23.17;11.00;;;;;;;13.42;100.00;94851.41;5045428;28;20107;-76
2022/09/16 09:56:27;;;;;;;21.92;10.98;;;;;;;13.52;100.00;94851.13;5049973;28;20045;-77
2022/09/16 09:59:18;;;;;;;19.17;9.43;;;;;;;13.49;100.00;94851.75;5041828;28;20112;-76
2022/09/16 10:01:44;;;;;;;20.50;10.40;;;;;;;13.38;100.00;94855.72;5038811;28;20210;-76
2022/09/16 10:04:16;;;;;;;19.27;10.18;;;;;;;13.47;100.00;94847.84;5053029;28;20029;-76
2022/09/16 10:06:44;;;;;;;20.10;9.65;;;;;;;13.49;100.00;94851.75;5048932;28;20053;-76
2022/09/16 10:09:15;;;;;;;19.83;10.38;;;;;;;13.57;100.00;94850.22;5042723;28;20041;-77
2022/09/16 10:11:49;;;;;;;20.90;9.85;;;;;;;13.30;100.00;94846.66;5044794;28;20041;-77
2022/09/16 10:14:34;;;;;;;23.00;10.88;;;;;;;13.34;100.00;94850.25;5038976;28;20037;-75
2022/09/16 10:17:02;;;;;;;15.95;9.25;;;;;;;13.48;100.00;94849.41;5049220;28;20090;-76
2022/09/16 10:19:30;;;;;;;21.00;9.98;;;;;;;13.43;100.00;94846.88;5048523;28;20045;-75
2022/09/16 10:22:09;;;;;;;21.10;10.50;;;;;;;13.38;100.00;94844.38;5041334;28;20049;-75
2022/09/16 10:24:38;;;;;;;22.55;10.32;;;;;;;13.26;100.00;94843.06;5037756;28;20133;-75
2022/09/16 10:27:26;;;;;;;21.38;10.27;;;;;;;13.18;100.00;94835.84;5049724;28;20049;-78
2022/09/16 10:30:12;;;;;;;21.63;11.35;;;;;;;13.23;100.00;94833.09;5047624;28;20429;-77
2022/09/16 10:33:01;;;;;;;18.13;10.18;;;;;;;13.21;100.00;94829.94;5046092;28;20548;-76
2022/09/16 10:35:29;;;;;;;25.02;10.80;;;;;;;13.09;100.00;94832.38;5048222;28;20074;-76
2022/09/16 10:38:19;;;;;;;17.08;10.18;;;;;;;13.17;100.00;94823.72;5044901;28;20033;-76
2022/09/16 10:40:56;;;;;;;18.35;10.93;;;;;;;13.06;100.00;94822.41;5032463;28;20415;-76
2022/09/16 10:43:24;;;;;;;23.02;10.60;;;;;;;13.04;100.00;94824.56;5040055;28;20042;-76
2022/09/16 10:45:52;;;;;;;24.63;10.93;;;;;;;13.03;100.00;94823.00;5049700;28;20041;-76
2022/09/16 10:48:25;;;;;;;25.42;12.05;;;;;;;12.88;100.00;94822.28;5048751;28;20051;-75
2022/09/16 10:50:53;;;;;;;23.48;11.20;;;;;;;12.98;100.00;94827.31;5048742;28;20049;-76
2022/09/16 10:53:31;;;;;;;21.95;11.52;;;;;;;13.16;100.00;94820.31;5039446;28;20061;-77
2022/09/16 10:55:59;;;;;;;23.95;12.25;;;;;;;13.16;100.00;94822.16;5049284;28;20040;-76
2022/09/16 10:58:24;;;;;;;24.92;12.45;;;;;;;13.12;100.00;94821.22;5048571;28;20041;-77
2022/09/16 11:01:11;;;;;;;23.77;11.85;;;;;;;13.08;100.00;94815.72;5045541;28;20800;-76
2022/09/16 11:03:37;;;;;;;20.80;10.85;;;;;;;13.22;100.00;94805.09;5047917;28;20064;-77
2022/09/16 11:06:08;;;;;;;25.35;12.32;;;;;;;13.45;100.00;94803.22;5048380;28;20499;-75
2022/09/16 11:08:49;;;;;;;21.42;10.90;;;;;;;13.59;100.00;94800.47;5047961;28;20095;-76
2022/09/16 11:11:41;;;;;;;18.83;10.60;;;;;;;13.71;100.00;94805.19;5044899;28;20037;-76
2022/09/16 11:14:25;;;;;;;18.90;9.82;;;;;;;13.83;100.00;94796.66;5034682;28;20407;-76
2022/09/16 11:17:16;;;;;;;15.00;9.02;;;;;;;14.17;100.00;94803.13;5046846;28;20033;-76
2022/09/16 11:20:18;;;;;;;15.43;8.98;;;;;;;14.00;100.00;94802.00;5049686;28;20156;-76
2022/09/16 11:23:25;;;;;;;15.50;7.97;;;;;;;13.17;100.00;94810.50;5043490;28;20060;-76
2022/09/16 11:26:00;;;;;;;15.50;8.25;;;;;;;13.06;100.00;94832.97;5043876;28;20072;-75
2022/09/16 11:28:44;;;;;;;11.82;7.43;;;;;;;12.63;100.00;94811.25;5049919;28;20045;-75
2022/09/16 11:31:37;;;;;;;12.93;7.10;;;;;;;12.20;100.00;94814.31;5049708;28;20037;-76
2022/09/16 11:34:13;;;;;;;13.88;6.97;;;;;;;12.15;100.00;94832.84;5052047;28;20037;-75
2022/09/16 11:36:53;;;;;;;14.32;6.93;;;;;;;12.05;100.00;94839.16;5048499;28;20098;-75
2022/09/16 11:39:27;;;;;;;14.20;6.95;;;;;;;11.86;100.00;94826.00;5043799;28;20099;-75
2022/09/16 11:42:05;;;;;;;14.23;7.47;;;;;;;11.40;100.00;94814.47;5037861;28;20102;-74